createdAt,value
2017-11-13T15:52:46.205Z,5.10
2017-11-13T15:55:27.440Z,3.08
2017-11-13T15:58:10.174Z,4.00
2017-11-13T16:01:04.731Z,3.67
2017-11-13T16:03:47.736Z,9.15
2017-11-13T16:06:29.162Z,6.72
2017-11-13T16:09:15.714Z,6.95
2017-11-13T16:12:25.706Z,6.45
2017-11-13T16:20:25.490Z,10.63
2017-11-13T16:22:59.454Z,5.87
2017-11-13T16:25:42.852Z,8.27
2017-11-13T16:28:34.495Z,4.90
2017-11-13T16:31:50.079Z,8.45
2017-11-13T16:34:35.821Z,7.45
2017-11-13T16:37:20.592Z,4.90
2017-11-13T16:40:32.107Z,5.25
2017-11-13T16:46:13.415Z,7.68
2017-11-13T16:49:20.227Z,6.90
2017-11-13T16:52:03.525Z,6.00
2017-11-13T16:54:56.777Z,5.10
2017-11-13T16:57:36.753Z,5.57
2017-11-13T17:01:48.655Z,11.90
2017-11-13T17:13:55.197Z,9.55
2017-11-13T17:16:37.352Z,10.95
2017-11-13T17:22:23.667Z,6.50
2017-11-13T17:31:15.417Z,10.27
2017-11-13T17:34:07.026Z,9.40
2017-11-13T17:36:51.943Z,11.30
2017-11-13T17:39:46.397Z,7.03
2017-11-13T17:42:30.724Z,7.75
2017-11-13T17:45:34.891Z,10.45
2017-11-13T17:48:22.264Z,7.25
2017-11-13T17:51:36.467Z,6.37
2017-11-13T17:54:26.595Z,7.47
2017-11-13T18:02:46.295Z,8.95
2017-11-13T18:05:33.834Z,12.40
2017-11-13T18:08:30.804Z,15.13
2017-11-13T18:11:09.508Z,7.97
2017-11-13T18:14:14.475Z,11.85
2017-11-13T18:16:54.596Z,9.57
2017-11-13T18:19:34.145Z,6.95
2017-11-13T18:22:17.324Z,11.82
2017-11-13T18:24:59.499Z,12.32
2017-11-13T18:27:43.009Z,10.35
2017-11-13T18:33:21.132Z,8.48
2017-11-13T18:36:02.032Z,8.88
2017-11-13T18:38:43.341Z,11.38
2017-11-13T18:41:22.864Z,12.65
2017-11-13T18:43:59.732Z,11.50
2017-11-13T18:46:39.856Z,14.82
2017-11-13T18:49:22.408Z,14.40
2017-11-13T18:55:35.696Z,11.12
2017-11-13T18:58:17.562Z,9.93
2017-11-13T19:01:03.253Z,15.18
2017-11-13T19:03:47.912Z,14.65
2017-11-13T19:06:36.689Z,12.55
2017-11-13T19:09:23.109Z,14.75
2017-11-13T19:14:49.540Z,15.45
2017-11-13T19:17:38.698Z,16.52
2017-11-13T19:20:23.843Z,14.07
2017-11-13T19:23:07.552Z,12.98
2017-11-13T19:26:01.501Z,14.07
2017-11-13T19:28:45.677Z,17.77
2017-11-13T19:31:34.805Z,18.85
2017-11-13T19:34:22.085Z,15.50
2017-11-13T19:37:36.562Z,15.15
2017-11-13T19:40:23.760Z,15.98
2017-11-13T19:43:05.736Z,15.02
2017-11-13T19:45:53.149Z,21.87
2017-11-13T19:52:05.632Z,15.35
2017-11-13T19:54:45.379Z,19.55
2017-11-13T19:57:29.124Z,17.15
2017-11-13T20:00:14.173Z,20.52
2017-11-13T20:02:54.137Z,14.77
2017-11-13T20:05:45.174Z,18.77
2017-11-13T20:08:26.008Z,18.10
2017-11-13T20:11:04.343Z,19.37
2017-11-13T20:13:40.544Z,19.83
2017-11-13T20:16:15.252Z,15.75
2017-11-13T20:18:48.398Z,19.87
2017-11-13T20:21:24.496Z,19.05
2017-11-13T20:24:00.785Z,19.17
2017-11-13T20:26:37.069Z,22.73
2017-11-13T20:29:12.516Z,20.40
2017-11-13T20:31:46.281Z,20.12
2017-11-13T20:34:22.332Z,21.40
2017-11-13T20:37:00.756Z,16.17
2017-11-13T20:39:40.307Z,18.42
2017-11-13T20:42:18.343Z,18.58
2017-11-13T20:44:53.591Z,21.33
2017-11-13T20:47:28.575Z,22.42
2017-11-13T20:50:26.352Z,22.10
2017-11-13T20:53:04.610Z,21.35
2017-11-13T20:55:55.596Z,23.75
2017-11-13T20:58:40.900Z,19.77
2017-11-13T21:01:17.530Z,19.25
2017-11-13T21:04:01.374Z,22.65
2017-11-13T21:06:42.198Z,26.35
2017-11-13T21:09:19.187Z,23.75
2017-11-13T21:12:04.647Z,19.27
2017-11-13T21:14:39.055Z,27.52
2017-11-13T21:17:16.567Z,27.30
2017-11-13T21:19:51.608Z,24.05
2017-11-13T21:22:28.563Z,22.92
2017-11-13T21:25:08.702Z,20.55
2017-11-13T21:27:47.303Z,22.87
2017-11-13T21:30:41.814Z,22.75
2017-11-13T21:33:18.865Z,26.23
2017-11-13T21:36:00.834Z,24.27
2017-11-13T21:38:39.781Z,23.65
2017-11-13T21:41:22.222Z,22.08
2017-11-13T21:44:03.187Z,23.92
2017-11-13T21:46:41.067Z,22.73
2017-11-13T21:49:20.950Z,22.10
2017-11-13T21:52:11.562Z,26.70
2017-11-13T21:54:46.980Z,23.80
2017-11-13T21:57:30.853Z,24.50
2017-11-13T22:00:13.079Z,21.02
2017-11-13T22:05:34.804Z,18.08
2017-11-13T22:08:16.526Z,21.60
2017-11-13T22:10:51.602Z,22.42
2017-11-13T22:13:26.454Z,19.48
2017-11-13T22:16:01.833Z,21.40
2017-11-13T22:18:35.978Z,21.75
2017-11-13T22:21:10.275Z,16.58
2017-11-13T22:23:40.958Z,16.50
2017-11-13T22:26:16.681Z,19.40
2017-11-13T22:28:52.320Z,18.95
2017-11-13T22:31:37.018Z,20.73
2017-11-13T22:34:11.684Z,20.73
2017-11-13T22:36:43.643Z,22.75
2017-11-13T22:39:16.464Z,24.08
2017-11-13T22:41:52.177Z,22.20
2017-11-13T22:44:24.517Z,24.37
2017-11-13T22:46:54.470Z,22.98
2017-11-13T22:49:25.266Z,25.02
2017-11-13T22:51:55.233Z,25.50
2017-11-13T22:54:26.376Z,24.12
2017-11-13T22:56:55.935Z,20.40
2017-11-13T22:59:25.328Z,24.35
2017-11-13T23:01:55.360Z,26.27
2017-11-13T23:04:25.599Z,26.60
2017-11-13T23:06:54.643Z,21.35
2017-11-13T23:09:24.889Z,24.12
2017-11-13T23:11:54.126Z,18.95
2017-11-13T23:14:23.235Z,18.02
2017-11-13T23:16:52.558Z,25.85
2017-11-13T23:19:22.531Z,26.33
2017-11-13T23:21:52.319Z,26.05
2017-11-13T23:24:22.351Z,26.80
2017-11-13T23:26:51.632Z,24.40
2017-11-13T23:29:20.694Z,29.60
2017-11-13T23:34:26.111Z,24.12
2017-11-13T23:36:55.964Z,27.83
2017-11-13T23:39:25.419Z,28.58
2017-11-13T23:41:54.455Z,25.10
2017-11-13T23:44:24.375Z,27.30
2017-11-13T23:46:53.500Z,23.50
2017-11-13T23:49:22.646Z,27.98
2017-11-13T23:51:51.774Z,27.60
2017-11-13T23:54:30.434Z,27.80
2017-11-13T23:56:59.529Z,36.50
2017-11-13T23:59:28.707Z,27.80
